sensor_id;sensor_type;location;lat;lon;timestamp;P1;durP1;ratioP1;P2;durP2;ratioP2
51248;SDS011;39642;47.556;18.728;2023-04-15T00:00:09;7.30;;;2.35;;
51248;SDS011;39642;47.556;18.728;2023-04-15T00:02:36;8.05;;;2.70;;
51248;SDS011;39642;47.556;18.728;2023-04-15T00:05:03;7.32;;;2.30;;
51248;SDS011;39642;47.556;18.728;2023-04-15T00:07:30;6.97;;;2.25;;
51248;SDS011;39642;47.556;18.728;2023-04-15T00:09:57;7.80;;;2.30;;
51248;SDS011;39642;47.556;18.728;2023-04-15T00:12:24;7.50;;;2.40;;
51248;SDS011;39642;47.556;18.728;2023-04-15T00:14:50;8.68;;;2.55;;
51248;SDS011;39642;47.556;18.728;2023-04-15T00:17:16;7.37;;;2.30;;
51248;SDS011;39642;47.556;18.728;2023-04-15T00:19:42;7.90;;;2.20;;
51248;SDS011;39642;47.556;18.728;2023-04-15T00:22:10;7.30;;;2.45;;
51248;SDS011;39642;47.556;18.728;2023-04-15T00:24:37;7.57;;;2.30;;
51248;SDS011;39642;47.556;18.728;2023-04-15T00:27:03;6.95;;;2.40;;
51248;SDS011;39642;47.556;18.728;2023-04-15T00:29:29;7.43;;;2.17;;
51248;SDS011;39642;47.556;18.728;2023-04-15T00:31:55;6.68;;;2.20;;
51248;SDS011;39642;47.556;18.728;2023-04-15T00:34:25;7.35;;;2.30;;
51248;SDS011;39642;47.556;18.728;2023-04-15T00:36:52;7.60;;;2.30;;
51248;SDS011;39642;47.556;18.728;2023-04-15T00:39:18;8.30;;;2.30;;
51248;SDS011;39642;47.556;18.728;2023-04-15T00:41:44;7.50;;;2.40;;
51248;SDS011;39642;47.556;18.728;2023-04-15T00:44:11;7.62;;;2.40;;
51248;SDS011;39642;47.556;18.728;2023-04-15T00:46:37;6.62;;;2.08;;
51248;SDS011;39642;47.556;18.728;2023-04-15T00:49:04;7.30;;;2.40;;
51248;SDS011;39642;47.556;18.728;2023-04-15T00:51:31;5.85;;;2.10;;
51248;SDS011;39642;47.556;18.728;2023-04-15T00:54:01;7.20;;;2.10;;
51248;SDS011;39642;47.556;18.728;2023-04-15T00:56:28;7.05;;;2.30;;
51248;SDS011;39642;47.556;18.728;2023-04-15T00:58:54;7.60;;;2.30;;
51248;SDS011;39642;47.556;18.728;2023-04-15T01:01:20;7.70;;;2.20;;
51248;SDS011;39642;47.556;18.728;2023-04-15T01:03:49;7.95;;;2.20;;
51248;SDS011;39642;47.556;18.728;2023-04-15T01:06:16;7.40;;;2.35;;
51248;SDS011;39642;47.556;18.728;2023-04-15T01:08:43;7.05;;;2.20;;
51248;SDS011;39642;47.556;18.728;2023-04-15T01:11:10;7.12;;;2.20;;
51248;SDS011;39642;47.556;18.728;2023-04-15T01:13:37;8.18;;;2.20;;
51248;SDS011;39642;47.556;18.728;2023-04-15T01:16:03;8.75;;;2.50;;
51248;SDS011;39642;47.556;18.728;2023-04-15T01:18:35;7.37;;;2.40;;
51248;SDS011;39642;47.556;18.728;2023-04-15T01:21:05;7.07;;;2.20;;
51248;SDS011;39642;47.556;18.728;2023-04-15T01:23:31;7.35;;;2.35;;
51248;SDS011;39642;47.556;18.728;2023-04-15T01:26:01;6.97;;;2.20;;
51248;SDS011;39642;47.556;18.728;2023-04-15T01:28:28;8.10;;;2.50;;
51248;SDS011;39642;47.556;18.728;2023-04-15T01:31:12;7.95;;;2.40;;
51248;SDS011;39642;47.556;18.728;2023-04-15T01:33:39;7.50;;;2.30;;
51248;SDS011;39642;47.556;18.728;2023-04-15T01:36:07;8.15;;;2.45;;
51248;SDS011;39642;47.556;18.728;2023-04-15T01:38:34;6.62;;;2.10;;
51248;SDS011;39642;47.556;18.728;2023-04-15T01:41:01;7.57;;;2.28;;
51248;SDS011;39642;47.556;18.728;2023-04-15T01:43:29;7.97;;;2.40;;
51248;SDS011;39642;47.556;18.728;2023-04-15T01:45:55;6.82;;;2.20;;
51248;SDS011;39642;47.556;18.728;2023-04-15T01:48:21;7.22;;;2.25;;
51248;SDS011;39642;47.556;18.728;2023-04-15T01:50:47;6.55;;;2.30;;
51248;SDS011;39642;47.556;18.728;2023-04-15T01:53:13;7.82;;;2.50;;
51248;SDS011;39642;47.556;18.728;2023-04-15T01:55:40;7.22;;;2.30;;
51248;SDS011;39642;47.556;18.728;2023-04-15T01:58:06;7.03;;;2.35;;
51248;SDS011;39642;47.556;18.728;2023-04-15T02:00:32;7.30;;;2.40;;
51248;SDS011;39642;47.556;18.728;2023-04-15T02:02:58;6.80;;;2.20;;
51248;SDS011;39642;47.556;18.728;2023-04-15T02:05:24;7.25;;;2.25;;
51248;SDS011;39642;47.556;18.728;2023-04-15T02:07:50;7.32;;;2.00;;
51248;SDS011;39642;47.556;18.728;2023-04-15T02:10:16;6.72;;;2.12;;
51248;SDS011;39642;47.556;18.728;2023-04-15T02:12:42;6.90;;;2.03;;
51248;SDS011;39642;47.556;18.728;2023-04-15T02:15:08;7.93;;;2.20;;
51248;SDS011;39642;47.556;18.728;2023-04-15T02:17:37;7.30;;;2.22;;
51248;SDS011;39642;47.556;18.728;2023-04-15T02:20:03;7.93;;;2.20;;
51248;SDS011;39642;47.556;18.728;2023-04-15T02:22:33;6.57;;;2.10;;
51248;SDS011;39642;47.556;18.728;2023-04-15T02:24:59;7.57;;;2.12;;
51248;SDS011;39642;47.556;18.728;2023-04-15T02:27:25;7.53;;;2.10;;
51248;SDS011;39642;47.556;18.728;2023-04-15T02:29:52;6.68;;;2.03;;
51248;SDS011;39642;47.556;18.728;2023-04-15T02:32:18;7.43;;;2.30;;
51248;SDS011;39642;47.556;18.728;2023-04-15T02:34:45;6.93;;;2.12;;
51248;SDS011;39642;47.556;18.728;2023-04-15T02:37:11;7.80;;;2.28;;
51248;SDS011;39642;47.556;18.728;2023-04-15T02:39:38;7.30;;;2.20;;
51248;SDS011;39642;47.556;18.728;2023-04-15T02:42:03;6.45;;;2.05;;
51248;SDS011;39642;47.556;18.728;2023-04-15T02:44:31;7.12;;;1.98;;
51248;SDS011;39642;47.556;18.728;2023-04-15T02:46:57;6.53;;;2.00;;
51248;SDS011;39642;47.556;18.728;2023-04-15T02:49:23;6.97;;;2.22;;
51248;SDS011;39642;47.556;18.728;2023-04-15T02:51:50;6.72;;;2.00;;
51248;SDS011;39642;47.556;18.728;2023-04-15T02:54:16;5.95;;;1.92;;
51248;SDS011;39642;47.556;18.728;2023-04-15T02:56:47;6.37;;;2.00;;
51248;SDS011;39642;47.556;18.728;2023-04-15T02:59:13;5.37;;;1.90;;
51248;SDS011;39642;47.556;18.728;2023-04-15T03:01:39;7.40;;;2.08;;
51248;SDS011;39642;47.556;18.728;2023-04-15T03:04:05;7.00;;;2.30;;
51248;SDS011;39642;47.556;18.728;2023-04-15T03:06:33;6.95;;;2.05;;
51248;SDS011;39642;47.556;18.728;2023-04-15T03:08:59;6.32;;;2.00;;
51248;SDS011;39642;47.556;18.728;2023-04-15T03:11:27;7.62;;;1.95;;
51248;SDS011;39642;47.556;18.728;2023-04-15T03:13:54;7.32;;;2.17;;
51248;SDS011;39642;47.556;18.728;2023-04-15T03:16:20;7.07;;;2.10;;
51248;SDS011;39642;47.556;18.728;2023-04-15T03:18:46;7.45;;;2.17;;
51248;SDS011;39642;47.556;18.728;2023-04-15T03:21:12;6.85;;;2.15;;
51248;SDS011;39642;47.556;18.728;2023-04-15T03:23:37;6.15;;;1.92;;
51248;SDS011;39642;47.556;18.728;2023-04-15T03:26:03;6.95;;;2.20;;
51248;SDS011;39642;47.556;18.728;2023-04-15T03:28:30;7.32;;;2.37;;
51248;SDS011;39642;47.556;18.728;2023-04-15T03:30:57;7.05;;;2.10;;
51248;SDS011;39642;47.556;18.728;2023-04-15T03:33:23;6.80;;;2.10;;
51248;SDS011;39642;47.556;18.728;2023-04-15T03:35:49;6.93;;;2.03;;
51248;SDS011;39642;47.556;18.728;2023-04-15T03:38:16;7.12;;;2.17;;
51248;SDS011;39642;47.556;18.728;2023-04-15T03:40:44;6.18;;;2.10;;
51248;SDS011;39642;47.556;18.728;2023-04-15T03:43:11;5.47;;;1.90;;
51248;SDS011;39642;47.556;18.728;2023-04-15T03:45:37;7.40;;;2.17;;
51248;SDS011;39642;47.556;18.728;2023-04-15T03:48:03;6.03;;;1.80;;
51248;SDS011;39642;47.556;18.728;2023-04-15T03:50:29;6.53;;;2.08;;
51248;SDS011;39642;47.556;18.728;2023-04-15T03:52:55;5.85;;;1.90;;
51248;SDS011;39642;47.556;18.728;2023-04-15T03:55:21;5.80;;;1.80;;
51248;SDS011;39642;47.556;18.728;2023-04-15T03:57:47;7.07;;;2.12;;
51248;SDS011;39642;47.556;18.728;2023-04-15T04:00:13;7.18;;;2.20;;
51248;SDS011;39642;47.556;18.728;2023-04-15T04:02:39;7.32;;;2.30;;
51248;SDS011;39642;47.556;18.728;2023-04-15T04:05:05;7.00;;;1.95;;
51248;SDS011;39642;47.556;18.728;2023-04-15T04:07:31;6.85;;;2.00;;
51248;SDS011;39642;47.556;18.728;2023-04-15T04:09:56;7.07;;;2.28;;
51248;SDS011;39642;47.556;18.728;2023-04-15T04:12:22;6.97;;;2.10;;
51248;SDS011;39642;47.556;18.728;2023-04-15T04:14:48;6.75;;;2.12;;
51248;SDS011;39642;47.556;18.728;2023-04-15T04:17:14;6.05;;;1.95;;
51248;SDS011;39642;47.556;18.728;2023-04-15T04:19:40;5.68;;;1.95;;
51248;SDS011;39642;47.556;18.728;2023-04-15T04:22:06;6.45;;;2.03;;
51248;SDS011;39642;47.556;18.728;2023-04-15T04:24:32;7.95;;;2.00;;
51248;SDS011;39642;47.556;18.728;2023-04-15T04:26:58;6.82;;;2.00;;
51248;SDS011;39642;47.556;18.728;2023-04-15T04:29:24;6.60;;;2.10;;
51248;SDS011;39642;47.556;18.728;2023-04-15T04:31:50;6.10;;;1.90;;
51248;SDS011;39642;47.556;18.728;2023-04-15T04:34:16;7.55;;;2.30;;
51248;SDS011;39642;47.556;18.728;2023-04-15T04:36:41;6.15;;;2.10;;
51248;SDS011;39642;47.556;18.728;2023-04-15T04:39:07;6.65;;;1.92;;
51248;SDS011;39642;47.556;18.728;2023-04-15T04:41:33;7.40;;;2.00;;
51248;SDS011;39642;47.556;18.728;2023-04-15T04:43:59;6.45;;;2.05;;
51248;SDS011;39642;47.556;18.728;2023-04-15T04:46:25;7.00;;;2.00;;
51248;SDS011;39642;47.556;18.728;2023-04-15T04:48:51;6.40;;;2.00;;
51248;SDS011;39642;47.556;18.728;2023-04-15T04:51:17;7.43;;;2.20;;
51248;SDS011;39642;47.556;18.728;2023-04-15T04:53:43;6.93;;;2.15;;
51248;SDS011;39642;47.556;18.728;2023-04-15T04:56:09;7.70;;;2.30;;
51248;SDS011;39642;47.556;18.728;2023-04-15T04:58:35;7.62;;;2.28;;
51248;SDS011;39642;47.556;18.728;2023-04-15T05:01:01;7.37;;;2.30;;
51248;SDS011;39642;47.556;18.728;2023-04-15T05:03:27;6.55;;;2.10;;
51248;SDS011;39642;47.556;18.728;2023-04-15T05:05:53;7.68;;;2.35;;
51248;SDS011;39642;47.556;18.728;2023-04-15T05:08:19;7.15;;;2.33;;
51248;SDS011;39642;47.556;18.728;2023-04-15T05:10:45;7.87;;;2.37;;
51248;SDS011;39642;47.556;18.728;2023-04-15T05:13:11;8.38;;;2.40;;
51248;SDS011;39642;47.556;18.728;2023-04-15T05:15:37;6.68;;;2.22;;
51248;SDS011;39642;47.556;18.728;2023-04-15T05:18:05;7.05;;;2.30;;
51248;SDS011;39642;47.556;18.728;2023-04-15T05:20:31;6.82;;;2.17;;
51248;SDS011;39642;47.556;18.728;2023-04-15T05:22:57;7.80;;;2.37;;
51248;SDS011;39642;47.556;18.728;2023-04-15T05:25:23;7.70;;;2.33;;
51248;SDS011;39642;47.556;18.728;2023-04-15T05:27:49;7.00;;;2.15;;
51248;SDS011;39642;47.556;18.728;2023-04-15T05:30:15;7.43;;;2.47;;
51248;SDS011;39642;47.556;18.728;2023-04-15T05:32:41;7.90;;;2.50;;
51248;SDS011;39642;47.556;18.728;2023-04-15T05:35:07;7.90;;;2.50;;
51248;SDS011;39642;47.556;18.728;2023-04-15T05:37:33;8.13;;;2.58;;
51248;SDS011;39642;47.556;18.728;2023-04-15T05:39:58;7.37;;;2.37;;
51248;SDS011;39642;47.556;18.728;2023-04-15T05:42:24;7.45;;;2.45;;
51248;SDS011;39642;47.556;18.728;2023-04-15T05:44:50;8.82;;;2.50;;
51248;SDS011;39642;47.556;18.728;2023-04-15T05:47:16;7.35;;;2.50;;
51248;SDS011;39642;47.556;18.728;2023-04-15T05:49:42;7.78;;;2.83;;
51248;SDS011;39642;47.556;18.728;2023-04-15T05:52:08;8.57;;;2.58;;
51248;SDS011;39642;47.556;18.728;2023-04-15T05:54:34;8.20;;;2.60;;
51248;SDS011;39642;47.556;18.728;2023-04-15T05:57:00;7.40;;;2.58;;
51248;SDS011;39642;47.556;18.728;2023-04-15T05:59:26;7.68;;;2.50;;
51248;SDS011;39642;47.556;18.728;2023-04-15T06:01:52;8.00;;;2.40;;
51248;SDS011;39642;47.556;18.728;2023-04-15T06:04:18;7.80;;;2.50;;
51248;SDS011;39642;47.556;18.728;2023-04-15T06:06:44;7.35;;;2.50;;
51248;SDS011;39642;47.556;18.728;2023-04-15T06:09:10;7.82;;;2.60;;
51248;SDS011;39642;47.556;18.728;2023-04-15T06:11:36;8.18;;;2.60;;
51248;SDS011;39642;47.556;18.728;2023-04-15T06:14:02;7.82;;;2.85;;
51248;SDS011;39642;47.556;18.728;2023-04-15T06:16:28;8.10;;;2.70;;
51248;SDS011;39642;47.556;18.728;2023-04-15T06:18:54;7.75;;;2.72;;
51248;SDS011;39642;47.556;18.728;2023-04-15T06:21:26;8.40;;;2.92;;
51248;SDS011;39642;47.556;18.728;2023-04-15T06:23:52;8.85;;;2.95;;
51248;SDS011;39642;47.556;18.728;2023-04-15T06:26:18;8.43;;;2.70;;
51248;SDS011;39642;47.556;18.728;2023-04-15T06:28:43;9.07;;;3.40;;
51248;SDS011;39642;47.556;18.728;2023-04-15T06:31:09;10.05;;;4.07;;
51248;SDS011;39642;47.556;18.728;2023-04-15T06:33:35;13.55;;;5.47;;
51248;SDS011;39642;47.556;18.728;2023-04-15T06:36:01;13.02;;;5.45;;
51248;SDS011;39642;47.556;18.728;2023-04-15T06:38:27;12.73;;;6.30;;
51248;SDS011;39642;47.556;18.728;2023-04-15T06:40:53;12.73;;;6.43;;
51248;SDS011;39642;47.556;18.728;2023-04-15T06:43:19;13.73;;;6.10;;
51248;SDS011;39642;47.556;18.728;2023-04-15T06:45:45;13.10;;;5.87;;
51248;SDS011;39642;47.556;18.728;2023-04-15T06:48:11;13.43;;;6.28;;
51248;SDS011;39642;47.556;18.728;2023-04-15T06:50:37;12.02;;;6.20;;
51248;SDS011;39642;47.556;18.728;2023-04-15T06:53:03;11.60;;;5.62;;
51248;SDS011;39642;47.556;18.728;2023-04-15T06:55:29;12.75;;;6.20;;
51248;SDS011;39642;47.556;18.728;2023-04-15T06:57:56;12.32;;;5.55;;
51248;SDS011;39642;47.556;18.728;2023-04-15T07:00:21;12.98;;;5.93;;
51248;SDS011;39642;47.556;18.728;2023-04-15T07:02:47;11.70;;;5.90;;
51248;SDS011;39642;47.556;18.728;2023-04-15T07:05:13;12.93;;;5.35;;
51248;SDS011;39642;47.556;18.728;2023-04-15T07:07:39;13.93;;;6.18;;
51248;SDS011;39642;47.556;18.728;2023-04-15T07:10:05;13.35;;;5.45;;
51248;SDS011;39642;47.556;18.728;2023-04-15T07:12:31;14.18;;;5.80;;
51248;SDS011;39642;47.556;18.728;2023-04-15T07:14:57;13.70;;;6.28;;
51248;SDS011;39642;47.556;18.728;2023-04-15T07:17:23;14.00;;;5.55;;
51248;SDS011;39642;47.556;18.728;2023-04-15T07:19:49;14.02;;;5.72;;
51248;SDS011;39642;47.556;18.728;2023-04-15T07:22:15;13.23;;;5.90;;
51248;SDS011;39642;47.556;18.728;2023-04-15T07:24:41;12.02;;;5.70;;
51248;SDS011;39642;47.556;18.728;2023-04-15T07:27:07;12.77;;;5.40;;
51248;SDS011;39642;47.556;18.728;2023-04-15T07:29:33;14.30;;;5.47;;
51248;SDS011;39642;47.556;18.728;2023-04-15T07:31:59;12.50;;;5.47;;
51248;SDS011;39642;47.556;18.728;2023-04-15T07:34:25;12.35;;;5.72;;
51248;SDS011;39642;47.556;18.728;2023-04-15T07:36:51;12.73;;;5.53;;
51248;SDS011;39642;47.556;18.728;2023-04-15T07:39:17;12.68;;;5.32;;
51248;SDS011;39642;47.556;18.728;2023-04-15T07:41:43;12.68;;;5.65;;
51248;SDS011;39642;47.556;18.728;2023-04-15T07:44:09;12.20;;;5.60;;
51248;SDS011;39642;47.556;18.728;2023-04-15T07:46:35;12.02;;;5.55;;
51248;SDS011;39642;47.556;18.728;2023-04-15T07:49:02;12.27;;;5.37;;
51248;SDS011;39642;47.556;18.728;2023-04-15T07:51:28;13.90;;;4.85;;
51248;SDS011;39642;47.556;18.728;2023-04-15T07:53:55;11.57;;;5.18;;
51248;SDS011;39642;47.556;18.728;2023-04-15T07:56:21;10.77;;;4.43;;
51248;SDS011;39642;47.556;18.728;2023-04-15T07:58:46;12.15;;;4.45;;
51248;SDS011;39642;47.556;18.728;2023-04-15T08:01:12;11.35;;;4.45;;
51248;SDS011;39642;47.556;18.728;2023-04-15T08:03:38;11.60;;;4.40;;
51248;SDS011;39642;47.556;18.728;2023-04-15T08:06:04;12.82;;;4.50;;
51248;SDS011;39642;47.556;18.728;2023-04-15T08:08:30;13.85;;;4.53;;
51248;SDS011;39642;47.556;18.728;2023-04-15T08:10:57;11.20;;;4.50;;
51248;SDS011;39642;47.556;18.728;2023-04-15T08:13:23;11.50;;;4.05;;
51248;SDS011;39642;47.556;18.728;2023-04-15T08:16:34;10.85;;;4.25;;
51248;SDS011;39642;47.556;18.728;2023-04-15T08:21:19;12.63;;;4.43;;
51248;SDS011;39642;47.556;18.728;2023-04-15T08:23:46;11.38;;;4.18;;
51248;SDS011;39642;47.556;18.728;2023-04-15T08:26:14;12.93;;;4.55;;
51248;SDS011;39642;47.556;18.728;2023-04-15T08:28:41;11.38;;;4.57;;
51248;SDS011;39642;47.556;18.728;2023-04-15T08:31:08;11.52;;;4.18;;
51248;SDS011;39642;47.556;18.728;2023-04-15T08:33:34;9.52;;;3.45;;
51248;SDS011;39642;47.556;18.728;2023-04-15T08:36:00;10.80;;;3.78;;
51248;SDS011;39642;47.556;18.728;2023-04-15T08:38:26;12.77;;;4.15;;
51248;SDS011;39642;47.556;18.728;2023-04-15T08:40:52;11.27;;;3.80;;
51248;SDS011;39642;47.556;18.728;2023-04-15T08:43:20;11.40;;;3.85;;
51248;SDS011;39642;47.556;18.728;2023-04-15T08:45:53;12.45;;;4.18;;
51248;SDS011;39642;47.556;18.728;2023-04-15T08:48:20;10.85;;;3.90;;
51248;SDS011;39642;47.556;18.728;2023-04-15T08:50:47;12.55;;;3.42;;
51248;SDS011;39642;47.556;18.728;2023-04-15T08:53:13;12.35;;;3.55;;
51248;SDS011;39642;47.556;18.728;2023-04-15T08:55:43;12.05;;;3.58;;
51248;SDS011;39642;47.556;18.728;2023-04-15T08:58:11;11.80;;;3.72;;
51248;SDS011;39642;47.556;18.728;2023-04-15T09:00:38;12.25;;;4.00;;
51248;SDS011;39642;47.556;18.728;2023-04-15T09:03:05;16.80;;;4.00;;
51248;SDS011;39642;47.556;18.728;2023-04-15T09:05:32;16.30;;;3.80;;
51248;SDS011;39642;47.556;18.728;2023-04-15T09:07:59;12.10;;;4.07;;
51248;SDS011;39642;47.556;18.728;2023-04-15T09:10:27;13.88;;;3.58;;
51248;SDS011;39642;47.556;18.728;2023-04-15T09:12:53;16.67;;;4.07;;
51248;SDS011;39642;47.556;18.728;2023-04-15T09:15:19;12.52;;;3.33;;
51248;SDS011;39642;47.556;18.728;2023-04-15T09:17:45;13.25;;;3.62;;
51248;SDS011;39642;47.556;18.728;2023-04-15T09:20:13;13.52;;;3.40;;
51248;SDS011;39642;47.556;18.728;2023-04-15T09:22:41;13.93;;;3.28;;
51248;SDS011;39642;47.556;18.728;2023-04-15T09:27:59;18.00;;;3.72;;
51248;SDS011;39642;47.556;18.728;2023-04-15T09:30:26;12.23;;;3.15;;
51248;SDS011;39642;47.556;18.728;2023-04-15T09:35:20;9.50;;;2.92;;
51248;SDS011;39642;47.556;18.728;2023-04-15T09:37:47;11.82;;;3.08;;
51248;SDS011;39642;47.556;18.728;2023-04-15T09:40:14;11.15;;;3.03;;
51248;SDS011;39642;47.556;18.728;2023-04-15T09:45:24;14.05;;;3.00;;
51248;SDS011;39642;47.556;18.728;2023-04-15T09:47:50;11.73;;;3.00;;
51248;SDS011;39642;47.556;18.728;2023-04-15T09:50:17;12.85;;;3.10;;
51248;SDS011;39642;47.556;18.728;2023-04-15T09:52:44;11.23;;;2.72;;
51248;SDS011;39642;47.556;18.728;2023-04-15T09:55:12;9.75;;;2.60;;
51248;SDS011;39642;47.556;18.728;2023-04-15T09:57:39;11.93;;;3.10;;
51248;SDS011;39642;47.556;18.728;2023-04-15T10:00:14;10.35;;;2.67;;
51248;SDS011;39642;47.556;18.728;2023-04-15T10:02:40;8.95;;;2.53;;
51248;SDS011;39642;47.556;18.728;2023-04-15T10:05:10;9.60;;;2.58;;
51248;SDS011;39642;47.556;18.728;2023-04-15T10:07:38;10.02;;;2.45;;
51248;SDS011;39642;47.556;18.728;2023-04-15T10:10:05;9.35;;;2.42;;
51248;SDS011;39642;47.556;18.728;2023-04-15T10:12:32;9.43;;;2.53;;
51248;SDS011;39642;47.556;18.728;2023-04-15T10:15:00;9.98;;;2.40;;
51248;SDS011;39642;47.556;18.728;2023-04-15T10:17:29;8.35;;;2.40;;
51248;SDS011;39642;47.556;18.728;2023-04-15T10:20:01;7.43;;;2.53;;
51248;SDS011;39642;47.556;18.728;2023-04-15T10:22:29;10.32;;;2.87;;
51248;SDS011;39642;47.556;18.728;2023-04-15T10:24:56;10.00;;;2.70;;
51248;SDS011;39642;47.556;18.728;2023-04-15T10:27:22;7.95;;;2.40;;
51248;SDS011;39642;47.556;18.728;2023-04-15T10:29:52;8.63;;;2.37;;
51248;SDS011;39642;47.556;18.728;2023-04-15T10:32:19;11.48;;;2.30;;
51248;SDS011;39642;47.556;18.728;2023-04-15T10:34:46;8.57;;;2.30;;
51248;SDS011;39642;47.556;18.728;2023-04-15T10:37:19;7.12;;;2.10;;
51248;SDS011;39642;47.556;18.728;2023-04-15T10:39:47;9.35;;;2.37;;
51248;SDS011;39642;47.556;18.728;2023-04-15T10:42:16;8.15;;;2.03;;
51248;SDS011;39642;47.556;18.728;2023-04-15T10:44:50;7.75;;;2.10;;
51248;SDS011;39642;47.556;18.728;2023-04-15T10:47:17;9.82;;;2.10;;
51248;SDS011;39642;47.556;18.728;2023-04-15T10:49:49;7.12;;;2.10;;
51248;SDS011;39642;47.556;18.728;2023-04-15T10:52:20;8.50;;;2.47;;
51248;SDS011;39642;47.556;18.728;2023-04-15T10:54:48;8.10;;;2.20;;
51248;SDS011;39642;47.556;18.728;2023-04-15T10:57:21;8.60;;;2.20;;
51248;SDS011;39642;47.556;18.728;2023-04-15T11:08:06;7.00;;;2.12;;
51248;SDS011;39642;47.556;18.728;2023-04-15T11:13:03;7.93;;;2.15;;
51248;SDS011;39642;47.556;18.728;2023-04-15T11:15:33;7.60;;;2.10;;
51248;SDS011;39642;47.556;18.728;2023-04-15T11:20:34;8.60;;;2.20;;
51248;SDS011;39642;47.556;18.728;2023-04-15T11:23:01;7.45;;;2.10;;
51248;SDS011;39642;47.556;18.728;2023-04-15T11:25:28;7.05;;;2.08;;
51248;SDS011;39642;47.556;18.728;2023-04-15T11:27:56;9.93;;;2.40;;
51248;SDS011;39642;47.556;18.728;2023-04-15T11:30:24;7.37;;;2.22;;
51248;SDS011;39642;47.556;18.728;2023-04-15T11:32:54;9.73;;;2.53;;
51248;SDS011;39642;47.556;18.728;2023-04-15T11:35:23;9.52;;;2.58;;
51248;SDS011;39642;47.556;18.728;2023-04-15T11:37:49;8.27;;;2.20;;
51248;SDS011;39642;47.556;18.728;2023-04-15T11:40:16;8.23;;;2.45;;
51248;SDS011;39642;47.556;18.728;2023-04-15T11:42:46;8.55;;;2.50;;
51248;SDS011;39642;47.556;18.728;2023-04-15T11:45:32;7.60;;;2.20;;
51248;SDS011;39642;47.556;18.728;2023-04-15T11:48:08;8.05;;;2.58;;
51248;SDS011;39642;47.556;18.728;2023-04-15T11:50:35;8.63;;;2.60;;
51248;SDS011;39642;47.556;18.728;2023-04-15T11:53:03;8.60;;;2.65;;
51248;SDS011;39642;47.556;18.728;2023-04-15T11:55:30;8.45;;;2.45;;
51248;SDS011;39642;47.556;18.728;2023-04-15T11:58:12;7.28;;;2.20;;
51248;SDS011;39642;47.556;18.728;2023-04-15T12:00:46;8.05;;;2.37;;
51248;SDS011;39642;47.556;18.728;2023-04-15T12:06:09;9.32;;;2.47;;
51248;SDS011;39642;47.556;18.728;2023-04-15T12:13:52;8.60;;;2.40;;
51248;SDS011;39642;47.556;18.728;2023-04-15T12:16:22;10.25;;;2.50;;
51248;SDS011;39642;47.556;18.728;2023-04-15T12:18:58;11.35;;;2.42;;
51248;SDS011;39642;47.556;18.728;2023-04-15T12:21:26;9.52;;;2.50;;
51248;SDS011;39642;47.556;18.728;2023-04-15T12:23:54;10.88;;;2.40;;
51248;SDS011;39642;47.556;18.728;2023-04-15T12:26:25;11.35;;;2.53;;
51248;SDS011;39642;47.556;18.728;2023-04-15T12:28:53;12.32;;;2.37;;
51248;SDS011;39642;47.556;18.728;2023-04-15T12:31:29;17.73;;;3.00;;
51248;SDS011;39642;47.556;18.728;2023-04-15T12:33:58;15.95;;;2.55;;
51248;SDS011;39642;47.556;18.728;2023-04-15T12:36:25;9.13;;;2.22;;
51248;SDS011;39642;47.556;18.728;2023-04-15T12:38:52;9.73;;;2.50;;
51248;SDS011;39642;47.556;18.728;2023-04-15T12:41:19;14.00;;;2.50;;
51248;SDS011;39642;47.556;18.728;2023-04-15T12:43:46;9.70;;;2.40;;
51248;SDS011;39642;47.556;18.728;2023-04-15T12:46:12;8.73;;;2.20;;
51248;SDS011;39642;47.556;18.728;2023-04-15T12:48:39;17.40;;;2.65;;
51248;SDS011;39642;47.556;18.728;2023-04-15T12:51:05;11.75;;;2.28;;
51248;SDS011;39642;47.556;18.728;2023-04-15T12:53:30;10.52;;;2.42;;
51248;SDS011;39642;47.556;18.728;2023-04-15T12:55:56;9.25;;;2.10;;
51248;SDS011;39642;47.556;18.728;2023-04-15T12:58:22;9.35;;;2.00;;
51248;SDS011;39642;47.556;18.728;2023-04-15T13:00:48;15.20;;;2.50;;
51248;SDS011;39642;47.556;18.728;2023-04-15T13:03:14;15.77;;;2.42;;
51248;SDS011;39642;47.556;18.728;2023-04-15T13:05:41;13.98;;;2.50;;
51248;SDS011;39642;47.556;18.728;2023-04-15T13:08:07;12.80;;;2.62;;
51248;SDS011;39642;47.556;18.728;2023-04-15T13:10:34;11.50;;;2.60;;
51248;SDS011;39642;47.556;18.728;2023-04-15T13:13:03;11.70;;;2.37;;
51248;SDS011;39642;47.556;18.728;2023-04-15T13:15:30;12.13;;;2.47;;
51248;SDS011;39642;47.556;18.728;2023-04-15T13:17:56;13.60;;;2.20;;
51248;SDS011;39642;47.556;18.728;2023-04-15T13:20:22;11.35;;;2.20;;
51248;SDS011;39642;47.556;18.728;2023-04-15T13:22:48;10.07;;;2.30;;
51248;SDS011;39642;47.556;18.728;2023-04-15T13:25:14;7.43;;;2.20;;
51248;SDS011;39642;47.556;18.728;2023-04-15T13:27:40;12.55;;;2.35;;
51248;SDS011;39642;47.556;18.728;2023-04-15T13:30:06;9.07;;;2.12;;
51248;SDS011;39642;47.556;18.728;2023-04-15T13:32:32;8.52;;;2.15;;
51248;SDS011;39642;47.556;18.728;2023-04-15T13:34:58;9.38;;;2.10;;
51248;SDS011;39642;47.556;18.728;2023-04-15T13:37:28;9.82;;;2.20;;
51248;SDS011;39642;47.556;18.728;2023-04-15T13:39:55;10.52;;;2.40;;
51248;SDS011;39642;47.556;18.728;2023-04-15T13:42:21;9.95;;;2.30;;
51248;SDS011;39642;47.556;18.728;2023-04-15T13:44:48;9.15;;;2.08;;
51248;SDS011;39642;47.556;18.728;2023-04-15T13:47:16;11.70;;;2.20;;
51248;SDS011;39642;47.556;18.728;2023-04-15T13:49:43;10.82;;;2.33;;
51248;SDS011;39642;47.556;18.728;2023-04-15T13:52:10;7.75;;;2.35;;
51248;SDS011;39642;47.556;18.728;2023-04-15T13:54:36;8.48;;;2.30;;
51248;SDS011;39642;47.556;18.728;2023-04-15T13:57:02;10.15;;;2.10;;
51248;SDS011;39642;47.556;18.728;2023-04-15T13:59:28;9.93;;;2.20;;
51248;SDS011;39642;47.556;18.728;2023-04-15T14:01:53;6.75;;;1.95;;
51248;SDS011;39642;47.556;18.728;2023-04-15T14:04:19;7.45;;;2.12;;
51248;SDS011;39642;47.556;18.728;2023-04-15T14:06:45;8.20;;;2.20;;
51248;SDS011;39642;47.556;18.728;2023-04-15T14:09:11;8.70;;;2.10;;
51248;SDS011;39642;47.556;18.728;2023-04-15T14:11:37;8.20;;;2.20;;
51248;SDS011;39642;47.556;18.728;2023-04-15T14:14:04;9.77;;;2.33;;
51248;SDS011;39642;47.556;18.728;2023-04-15T14:16:31;8.18;;;2.10;;
51248;SDS011;39642;47.556;18.728;2023-04-15T14:18:58;8.18;;;2.08;;
51248;SDS011;39642;47.556;18.728;2023-04-15T14:21:24;8.27;;;2.00;;
51248;SDS011;39642;47.556;18.728;2023-04-15T14:23:52;7.95;;;2.20;;
51248;SDS011;39642;47.556;18.728;2023-04-15T14:26:18;8.90;;;2.03;;
51248;SDS011;39642;47.556;18.728;2023-04-15T14:28:44;8.32;;;2.20;;
51248;SDS011;39642;47.556;18.728;2023-04-15T14:31:10;7.90;;;2.25;;
51248;SDS011;39642;47.556;18.728;2023-04-15T14:33:36;7.30;;;2.17;;
51248;SDS011;39642;47.556;18.728;2023-04-15T14:36:02;7.90;;;2.25;;
51248;SDS011;39642;47.556;18.728;2023-04-15T14:38:28;9.20;;;2.62;;
51248;SDS011;39642;47.556;18.728;2023-04-15T14:40:54;7.12;;;2.10;;
51248;SDS011;39642;47.556;18.728;2023-04-15T14:43:20;6.82;;;2.10;;
51248;SDS011;39642;47.556;18.728;2023-04-15T14:45:46;8.85;;;2.12;;
51248;SDS011;39642;47.556;18.728;2023-04-15T14:48:12;7.80;;;2.35;;
51248;SDS011;39642;47.556;18.728;2023-04-15T14:50:38;8.40;;;2.40;;
51248;SDS011;39642;47.556;18.728;2023-04-15T14:53:04;6.90;;;2.10;;
51248;SDS011;39642;47.556;18.728;2023-04-15T14:55:30;8.60;;;2.40;;
51248;SDS011;39642;47.556;18.728;2023-04-15T14:57:58;11.10;;;2.47;;
51248;SDS011;39642;47.556;18.728;2023-04-15T15:00:24;10.63;;;2.78;;